createdAt,value
2018-09-10T00:00:30.909Z,1019.7
2018-09-10T00:01:41.029Z,1019.7
2018-09-10T00:02:50.603Z,1019.66
2018-09-10T00:03:59.906Z,1019.69
2018-09-10T00:05:09.211Z,1019.71
2018-09-10T00:06:19.318Z,1019.71
2018-09-10T00:07:29.166Z,1019.71
2018-09-10T00:08:38.196Z,1019.68
2018-09-10T00:09:47.500Z,1019.71
2018-09-10T00:10:57.336Z,1019.71
2018-09-10T00:12:07.183Z,1019.69
2018-09-10T00:13:16.762Z,1019.64
2018-09-10T00:14:26.608Z,1019.66
2018-09-10T00:15:36.723Z,1019.64
2018-09-10T00:16:46.020Z,1019.63
2018-09-10T00:17:55.590Z,1019.63
2018-09-10T00:19:05.441Z,1019.63
2018-09-10T00:20:15.292Z,1019.62
2018-09-10T00:21:25.133Z,1019.63
2018-09-10T00:22:34.713Z,1019.66
2018-09-10T00:23:44.559Z,1019.64
2018-09-10T00:24:54.430Z,1019.63
2018-09-10T00:26:03.737Z,1019.65
2018-09-10T00:27:13.314Z,1019.59
2018-09-10T00:28:22.893Z,1019.62
2018-09-10T00:29:32.463Z,1019.63
2018-09-10T00:30:42.578Z,1019.62
2018-09-10T00:31:51.611Z,1019.59
2018-09-10T00:33:01.181Z,1019.6
2018-09-10T00:34:11.296Z,1019.62
2018-09-10T00:35:21.421Z,1019.58
2018-09-10T00:36:30.998Z,1019.59
2018-09-10T00:37:40.303Z,1019.51
2018-09-10T00:38:50.177Z,1019.54
2018-09-10T00:39:59.481Z,1019.52
2018-09-10T00:41:09.054Z,1019.54
2018-09-10T00:42:18.632Z,1019.53
2018-09-10T00:43:27.929Z,1019.54
2018-09-10T00:44:37.237Z,1019.47
2018-09-10T00:45:47.410Z,1019.51
2018-09-10T00:46:57.250Z,1019.49
2018-09-10T00:48:07.097Z,1019.53
2018-09-10T00:49:17.211Z,1019.49
2018-09-10T00:50:26.789Z,1019.53
2018-09-10T00:51:36.629Z,1019.5
2018-09-10T00:52:46.775Z,1019.51
2018-09-10T00:53:56.350Z,1019.5
2018-09-10T00:55:06.470Z,1019.53
2018-09-10T00:56:16.312Z,1019.52
2018-09-10T00:57:26.155Z,1019.53
2018-09-10T00:58:35.457Z,1019.5
2018-09-10T00:59:45.301Z,1019.48
2018-09-10T01:00:55.422Z,1019.51
2018-09-10T01:02:05.266Z,1019.5
2018-09-10T01:03:14.842Z,1019.52
2018-09-10T01:04:24.411Z,1019.53
2018-09-10T01:05:34.262Z,1019.53
2018-09-10T01:06:44.115Z,1019.5
2018-09-10T01:07:53.960Z,1019.49
2018-09-10T01:09:03.801Z,1019.5
2018-09-10T01:10:13.378Z,1019.47
2018-09-10T01:11:23.428Z,1019.41
2018-09-10T01:12:33.273Z,1019.38
2018-09-10T01:13:42.877Z,1019.35
2018-09-10T01:14:52.771Z,1019.35
2018-09-10T01:16:02.888Z,1019.33
2018-09-10T01:17:12.758Z,1019.33
2018-09-10T01:18:22.324Z,1019.33
2018-09-10T01:19:32.171Z,1019.29
2018-09-10T01:20:41.752Z,1019.29
2018-09-10T01:21:51.591Z,1019.31
2018-09-10T01:23:01.444Z,1019.31
2018-09-10T01:24:11.285Z,1019.29
2018-09-10T01:25:21.124Z,1019.3
2018-09-10T01:26:30.693Z,1019.25
2018-09-10T01:27:40.798Z,1019.3
2018-09-10T01:28:50.641Z,1019.29
2018-09-10T01:29:59.948Z,1019.3
2018-09-10T01:31:09.523Z,1019.33
2018-09-10T01:32:18.824Z,1019.33
2018-09-10T01:33:28.126Z,1019.34
2018-09-10T01:34:37.969Z,1019.32
2018-09-10T01:35:47.540Z,1019.38
2018-09-10T01:36:57.399Z,1019.42
2018-09-10T01:38:07.275Z,1019.36
2018-09-10T01:39:17.126Z,1019.38
2018-09-10T01:40:27.239Z,1019.43
2018-09-10T01:41:36.539Z,1019.4
2018-09-10T01:42:46.383Z,1019.44
2018-09-10T01:43:56.230Z,1019.38
2018-09-10T01:45:05.559Z,1019.4
2018-09-10T01:46:15.671Z,1019.39
2018-09-10T01:47:25.517Z,1019.4
2018-09-10T01:48:35.104Z,1019.41
2018-09-10T01:49:44.946Z,1019.4
2018-09-10T01:50:54.262Z,1019.38
2018-09-10T01:52:03.831Z,1019.37
2018-09-10T01:53:13.692Z,1019.4
2018-09-10T01:54:23.804Z,1019.39
2018-09-10T01:55:33.661Z,1019.32
2018-09-10T01:56:43.505Z,1019.29
2018-09-10T01:57:53.632Z,1019.28
2018-09-10T01:59:03.707Z,1019.3
2018-09-10T02:00:13.849Z,1019.29
2018-09-10T02:01:23.520Z,1019.33
2018-09-10T02:02:33.370Z,1019.29
2018-09-10T02:03:43.485Z,1019.28
2018-09-10T02:04:53.332Z,1019.27
2018-09-10T02:06:02.906Z,1019.3
2018-09-10T02:07:12.209Z,1019.3
2018-09-10T02:08:22.075Z,1019.26
2018-09-10T02:09:31.653Z,1019.27
2018-09-10T02:10:40.955Z,1019.3
2018-09-10T02:11:50.524Z,1019.26
2018-09-10T02:13:00.366Z,1019.27
2018-09-10T02:14:10.478Z,1019.28
2018-09-10T02:15:20.324Z,1019.25
2018-09-10T02:16:30.160Z,1019.22
2018-09-10T02:17:39.735Z,1019.2
2018-09-10T02:18:49.317Z,1019.2
2018-09-10T02:19:58.892Z,1019.22
2018-09-10T02:21:08.196Z,1019.19
2018-09-10T02:22:17.767Z,1019.29
2018-09-10T02:23:27.638Z,1019.29
2018-09-10T02:24:37.089Z,1019.25
2018-09-10T02:25:46.665Z,1019.27
2018-09-10T02:26:56.789Z,1019.25
2018-09-10T02:28:06.359Z,1019.29
2018-09-10T02:29:16.271Z,1019.27
2018-09-10T02:30:26.788Z,1019.26
2018-09-10T02:31:36.935Z,1019.16
2018-09-10T02:32:46.780Z,1019.21
2018-09-10T02:33:56.643Z,1019.21
2018-09-10T02:35:06.781Z,1019.19
2018-09-10T02:36:16.389Z,1019.13
2018-09-10T02:37:26.235Z,1019.13
2018-09-10T02:38:36.144Z,1019.08
2018-09-10T02:39:46.634Z,1019.09
2018-09-10T02:40:56.420Z,1019.05
2018-09-10T02:42:06.279Z,1019.05
2018-09-10T02:43:16.137Z,1018.94
2018-09-10T02:44:25.987Z,1018.94
2018-09-10T02:45:35.828Z,1018.97
2018-09-10T02:46:44.871Z,1019.02
2018-09-10T02:47:54.170Z,1019
2018-09-10T02:49:03.767Z,1019.09
2018-09-10T02:50:13.070Z,1019.14
2018-09-10T02:51:22.922Z,1019.21
2018-09-10T02:52:33.045Z,1019.3
2018-09-10T02:53:42.890Z,1019.3
2018-09-10T02:54:52.469Z,1019.36
2018-09-10T02:56:02.827Z,1019.31
2018-09-10T02:57:11.599Z,1019.31
2018-09-10T02:58:21.454Z,1019.31
2018-09-10T02:59:31.305Z,1019.27
2018-09-10T03:00:41.421Z,1019.21
2018-09-10T03:01:51.268Z,1019.18
2018-09-10T03:03:00.855Z,1019.17
2018-09-10T03:04:10.702Z,1019.15
2018-09-10T03:05:20.548Z,1019.21
2018-09-10T03:06:30.670Z,1019.22
2018-09-10T03:07:40.518Z,1019.29
2018-09-10T03:08:49.818Z,1019.39
2018-09-10T03:09:59.396Z,1019.4
2018-09-10T03:11:08.972Z,1019.41
2018-09-10T03:12:19.117Z,1019.38
2018-09-10T03:13:28.974Z,1019.39
2018-09-10T03:14:38.825Z,1019.37
2018-09-10T03:15:48.665Z,1019.41
2018-09-10T03:16:58.296Z,1019.37
2018-09-10T03:18:08.141Z,1019.38
2018-09-10T03:19:17.990Z,1019.4
2018-09-10T03:20:27.570Z,1019.34
2018-09-10T03:21:37.691Z,1019.32
2018-09-10T03:22:47.807Z,1019.26
2018-09-10T03:23:57.760Z,1019.25
2018-09-10T03:25:08.253Z,1019.26
2018-09-10T03:26:18.369Z,1019.28
2018-09-10T03:27:28.212Z,1019.23
2018-09-10T03:28:37.789Z,1019.17
2018-09-10T03:29:47.097Z,1019.12
2018-09-10T03:30:56.940Z,1019.13
2018-09-10T03:32:07.072Z,1019.12
2018-09-10T03:33:16.931Z,1019.12
2018-09-10T03:34:26.899Z,1019.16
2018-09-10T03:35:37.006Z,1019.2
2018-09-10T03:36:47.125Z,1019.21
2018-09-10T03:37:57.176Z,1019.29
2018-09-10T03:39:07.288Z,1019.28
2018-09-10T03:40:17.138Z,1019.27
2018-09-10T03:41:26.714Z,1019.26
2018-09-10T03:42:36.597Z,1019.24
2018-09-10T03:43:45.903Z,1019.24
2018-09-10T03:44:55.483Z,1019.25
2018-09-10T03:46:04.794Z,1019.25
2018-09-10T03:47:14.414Z,1019.29
2018-09-10T03:48:24.988Z,1019.27
2018-09-10T03:49:34.568Z,1019.23
2018-09-10T03:50:44.419Z,1019.25
2018-09-10T03:51:54.308Z,1019.22
2018-09-10T03:53:03.890Z,1019.23
2018-09-10T03:54:13.740Z,1019.2
2018-09-10T03:55:23.586Z,1019.25
2018-09-10T03:56:33.446Z,1019.18
2018-09-10T03:57:43.291Z,1019.19
2018-09-10T03:58:53.129Z,1019.16
2018-09-10T04:00:02.441Z,1019.19
2018-09-10T04:01:12.037Z,1019.21
2018-09-10T04:02:21.883Z,1019.19
2018-09-10T04:03:32.005Z,1019.2
2018-09-10T04:04:41.035Z,1019.19
2018-09-10T04:05:50.883Z,1019.19
2018-09-10T04:07:00.456Z,1019.18
2018-09-10T04:08:10.034Z,1019.15
2018-09-10T04:09:19.613Z,1019.19
2018-09-10T04:10:29.186Z,1019.16
2018-09-10T04:11:39.060Z,1019.14
2018-09-10T04:12:48.905Z,1019.16
2018-09-10T04:13:58.203Z,1019.17
2018-09-10T04:15:08.089Z,1019.09
2018-09-10T04:16:17.660Z,1019.02
2018-09-10T04:17:26.965Z,1018.99
2018-09-10T04:18:37.077Z,1018.97
2018-09-10T04:19:46.928Z,1018.9
2018-09-10T04:20:57.045Z,1018.93
2018-09-10T04:22:06.899Z,1018.87
2018-09-10T04:23:17.025Z,1018.93
2018-09-10T04:24:26.604Z,1018.92
2018-09-10T04:25:36.448Z,1018.92
2018-09-10T04:26:46.589Z,1018.99
2018-09-10T04:27:55.634Z,1019.06
2018-09-10T04:29:05.206Z,1019.08
2018-09-10T04:30:14.783Z,1019.15
2018-09-10T04:31:24.911Z,1019.11
2018-09-10T04:32:34.213Z,1019.11
2018-09-10T04:33:43.782Z,1019.14
2018-09-10T04:34:53.089Z,1019.14
2018-09-10T04:36:02.953Z,1019.13
2018-09-10T04:37:13.198Z,1019.11
2018-09-10T04:38:23.093Z,1019.12
2018-09-10T04:39:32.671Z,1019.08
2018-09-10T04:40:42.524Z,1019.05
2018-09-10T04:41:52.367Z,1018.99
2018-09-10T04:43:02.217Z,1019.02
2018-09-10T04:44:12.068Z,1018.99
2018-09-10T04:45:22.183Z,1018.99
2018-09-10T04:46:32.029Z,1019.04
2018-09-10T04:47:41.600Z,1019.01
2018-09-10T04:48:51.757Z,1019.05
2018-09-10T04:50:01.408Z,1019.06
2018-09-10T04:51:10.711Z,1019.08
2018-09-10T04:52:20.020Z,1019.11
2018-09-10T04:53:29.605Z,1019.11
2018-09-10T04:54:39.518Z,1019.11
2018-09-10T04:55:49.419Z,1019.1
2018-09-10T04:56:59.507Z,1019.16
2018-09-10T04:58:09.525Z,1019.13
2018-09-10T04:59:19.300Z,1019.2
2018-09-10T05:00:29.444Z,1019.23
2018-09-10T05:01:39.341Z,1019.28
2018-09-10T05:02:48.920Z,1019.24
2018-09-10T05:03:58.514Z,1019.27
2018-09-10T05:05:08.632Z,1019.28
2018-09-10T05:06:18.214Z,1019.26
2018-09-10T05:07:27.794Z,1019.24
2018-09-10T05:08:37.644Z,1019.26
2018-09-10T05:09:47.290Z,1019.19
2018-09-10T05:10:57.347Z,1019.17
2018-09-10T05:12:06.927Z,1019.25
2018-09-10T05:13:16.775Z,1019.23
2018-09-10T05:14:26.355Z,1019.24
2018-09-10T05:15:36.473Z,1019.23
2018-09-10T05:16:45.507Z,1019.26
2018-09-10T05:17:55.621Z,1019.26
2018-09-10T05:19:04.927Z,1019.31
2018-09-10T05:20:15.060Z,1019.32
2018-09-10T05:21:24.365Z,1019.29
2018-09-10T05:22:34.248Z,1019.26
2018-09-10T05:23:44.373Z,1019.29
2018-09-10T05:24:54.488Z,1019.29
2018-09-10T05:26:03.799Z,1019.27
2018-09-10T05:27:13.643Z,1019.31
2018-09-10T05:28:23.215Z,1019.31
2018-09-10T05:29:33.335Z,1019.32
2018-09-10T05:30:43.226Z,1019.32
2018-09-10T05:31:53.344Z,1019.32
2018-09-10T05:33:03.189Z,1019.29
2018-09-10T05:34:12.766Z,1019.34
2018-09-10T05:35:22.622Z,1019.32
2018-09-10T05:36:31.927Z,1019.33
2018-09-10T05:37:41.797Z,1019.33
2018-09-10T05:38:51.374Z,1019.31
2018-09-10T05:40:01.225Z,1019.31
2018-09-10T05:41:10.803Z,1019.35
2018-09-10T05:42:20.114Z,1019.34
2018-09-10T05:43:29.962Z,1019.33
2018-09-10T05:44:39.538Z,1019.36
2018-09-10T05:45:49.115Z,1019.37
2018-09-10T05:46:58.726Z,1019.4
2018-09-10T05:48:08.579Z,1019.4
2018-09-10T05:49:18.820Z,1019.48
2018-09-10T05:50:28.665Z,1019.5
2018-09-10T05:51:38.519Z,1019.5
2018-09-10T05:52:48.644Z,1019.55
2018-09-10T05:53:58.491Z,1019.57
2018-09-10T05:55:08.337Z,1019.58
2018-09-10T05:56:18.466Z,1019.63
2018-09-10T05:57:28.043Z,1019.62
2018-09-10T05:58:37.349Z,1019.64
2018-09-10T05:59:46.923Z,1019.67
2018-09-10T06:00:56.497Z,1019.63
2018-09-10T06:02:06.130Z,1019.63
2018-09-10T06:03:15.981Z,1019.69
2018-09-10T06:04:26.115Z,1019.71
2018-09-10T06:05:35.967Z,1019.68
2018-09-10T06:06:45.575Z,1019.66
2018-09-10T06:07:55.643Z,1019.7
2018-09-10T06:09:06.037Z,1019.74
2018-09-10T06:10:15.936Z,1019.78
2018-09-10T06:11:26.027Z,1019.84
2018-09-10T06:12:35.871Z,1019.78
2018-09-10T06:13:45.452Z,1019.8
2018-09-10T06:14:55.329Z,1019.76
2018-09-10T06:16:05.147Z,1019.83
2018-09-10T06:17:14.995Z,1019.81
2018-09-10T06:18:24.835Z,1019.81
2018-09-10T06:19:34.684Z,1019.74
2018-09-10T06:20:44.801Z,1019.79
2018-09-10T06:21:54.109Z,1019.76
2018-09-10T06:23:03.962Z,1019.8
2018-09-10T06:24:14.107Z,1019.73
2018-09-10T06:25:23.952Z,1019.66
2018-09-10T06:26:33.526Z,1019.65
2018-09-10T06:27:43.373Z,1019.67
2018-09-10T06:28:52.951Z,1019.66
2018-09-10T06:30:02.521Z,1019.63
2018-09-10T06:31:12.813Z,1019.65
2018-09-10T06:32:22.930Z,1019.66
2018-09-10T06:33:32.237Z,1019.69
2018-09-10T06:34:41.541Z,1019.72
2018-09-10T06:35:51.391Z,1019.68
2018-09-10T06:37:01.026Z,1019.69
2018-09-10T06:38:11.512Z,1019.72
2018-09-10T06:39:21.628Z,1019.74
2018-09-10T06:40:31.464Z,1019.67
2018-09-10T06:41:41.304Z,1019.64
2018-09-10T06:42:51.145Z,1019.68
2018-09-10T06:44:00.496Z,1019.68
2018-09-10T06:45:10.617Z,1019.67
2018-09-10T06:46:20.191Z,1019.7
2018-09-10T06:47:30.037Z,1019.67
2018-09-10T06:48:39.145Z,1019.65
2018-09-10T06:49:48.463Z,1019.61
2018-09-10T06:50:58.579Z,1019.67
2018-09-10T06:52:08.150Z,1019.63
2018-09-10T06:53:18.278Z,1019.62
2018-09-10T06:54:27.880Z,1019.58
2018-09-10T06:55:38.006Z,1019.62
2018-09-10T06:56:47.853Z,1019.67
2018-09-10T06:57:57.971Z,1019.69
2018-09-10T06:59:08.083Z,1019.68
2018-09-10T07:00:17.963Z,1019.71
2018-09-10T07:01:28.074Z,1019.65
2018-09-10T07:02:37.948Z,1019.64
2018-09-10T07:03:47.253Z,1019.67
2018-09-10T07:04:57.100Z,1019.7
2018-09-10T07:06:06.951Z,1019.78
2018-09-10T07:07:16.917Z,1019.8
2018-09-10T07:08:26.487Z,1019.81
2018-09-10T07:09:36.605Z,1019.81
2018-09-10T07:10:46.457Z,1019.8
2018-09-10T07:11:56.033Z,1019.76
2018-09-10T07:13:05.969Z,1019.77
2018-09-10T07:14:16.544Z,1019.84
2018-09-10T07:15:26.119Z,1019.9
2018-09-10T07:16:35.962Z,1019.95
2018-09-10T07:17:45.836Z,1019.92
2018-09-10T07:18:54.892Z,1019.95
2018-09-10T07:20:05.402Z,1019.94
2018-09-10T07:21:15.240Z,1019.91
2018-09-10T07:22:24.816Z,1019.97
2018-09-10T07:23:34.387Z,1019.97
2018-09-10T07:24:44.503Z,1019.93
2018-09-10T07:25:54.082Z,1019.87
2018-09-10T07:27:04.249Z,1019.88
2018-09-10T07:28:13.548Z,1019.94
2018-09-10T07:29:23.172Z,1019.94
2018-09-10T07:30:32.743Z,1019.95
2018-09-10T07:31:42.585Z,1019.95
2018-09-10T07:32:52.432Z,1020
2018-09-10T07:34:02.552Z,1020.02
2018-09-10T07:35:12.123Z,1020.03
2018-09-10T07:36:21.968Z,1019.97
2018-09-10T07:37:31.835Z,1019.97
2018-09-10T07:38:41.416Z,1020
2018-09-10T07:39:50.988Z,1020
2018-09-10T07:41:00.561Z,1019.93
2018-09-10T07:42:10.402Z,1019.94
2018-09-10T07:43:20.275Z,1020.01
2018-09-10T07:44:29.998Z,1020.01
2018-09-10T07:45:39.848Z,1020
2018-09-10T07:46:49.742Z,1019.96
2018-09-10T07:47:59.855Z,1019.9
2018-09-10T07:49:09.712Z,1019.89
2018-09-10T07:50:19.325Z,1019.89
2018-09-10T07:51:29.661Z,1019.83
2018-09-10T07:52:39.560Z,1019.9
2018-09-10T07:53:48.865Z,1019.88
2018-09-10T07:54:58.713Z,1019.92
2018-09-10T07:56:08.293Z,1019.93
2018-09-10T07:57:17.874Z,1019.89
2018-09-10T07:58:27.457Z,1019.93
2018-09-10T07:59:37.313Z,1019.94
2018-09-10T08:00:46.896Z,1019.97
2018-09-10T08:01:56.628Z,1020.01
2018-09-10T08:03:06.616Z,1020.07
2018-09-10T08:04:17.030Z,1020.17
2018-09-10T08:05:26.337Z,1020.15
2018-09-10T08:06:35.635Z,1020.11
2018-09-10T08:07:45.755Z,1020.19
2018-09-10T08:08:55.881Z,1020.2
2018-09-10T08:10:05.322Z,1020.22
2018-09-10T08:11:15.163Z,1020.19
2018-09-10T08:12:24.735Z,1020.2
2018-09-10T08:13:34.681Z,1020.18
2018-09-10T08:14:44.256Z,1020.22
2018-09-10T08:15:54.378Z,1020.3
2018-09-10T08:17:04.221Z,1020.26
2018-09-10T08:18:14.067Z,1020.25
2018-09-10T08:19:23.642Z,1020.2
2018-09-10T08:20:33.215Z,1020.22
2018-09-10T08:21:43.063Z,1020.24
2018-09-10T08:22:52.909Z,1020.27
2018-09-10T08:24:02.786Z,1020.25
2018-09-10T08:25:12.710Z,1020.29
2018-09-10T08:26:22.696Z,1020.26
2018-09-10T08:27:32.565Z,1020.22
2018-09-10T08:28:42.415Z,1020.2
2018-09-10T08:29:52.536Z,1020.21
2018-09-10T08:31:02.116Z,1020.19
2018-09-10T08:32:11.959Z,1020.18
2018-09-10T08:33:21.535Z,1020.22
2018-09-10T08:34:30.841Z,1020.27
2018-09-10T08:35:40.891Z,1020.29
2018-09-10T08:36:50.501Z,1020.24
2018-09-10T08:38:00.078Z,1020.23
2018-09-10T08:39:09.924Z,1020.25
2018-09-10T08:40:20.042Z,1020.2
2018-09-10T08:41:29.893Z,1020.18
2018-09-10T08:42:39.779Z,1020.23
2018-09-10T08:43:50.192Z,1020.21
2018-09-10T08:44:59.277Z,1020.26
2018-09-10T08:46:08.619Z,1020.26
2018-09-10T08:47:18.745Z,1020.26
2018-09-10T08:48:28.595Z,1020.23
2018-09-10T08:49:38.194Z,1020.2
2018-09-10T08:50:47.768Z,1020.18
2018-09-10T08:51:57.341Z,1020.19
2018-09-10T08:53:06.677Z,1020.22
2018-09-10T08:54:16.301Z,1020.32
2018-09-10T08:55:27.571Z,1020.29
2018-09-10T08:56:38.649Z,1020.35
2018-09-10T08:57:48.228Z,1020.42
2018-09-10T08:58:57.807Z,1020.44
2018-09-10T09:00:07.395Z,1020.41
2018-09-10T09:01:17.796Z,1020.43
2018-09-10T09:02:27.640Z,1020.36
2018-09-10T09:03:37.491Z,1020.41
2018-09-10T09:04:47.609Z,1020.4
2018-09-10T09:05:57.520Z,1020.42
2018-09-10T09:07:07.841Z,1020.37
2018-09-10T09:08:17.680Z,1020.48
2018-09-10T09:09:27.804Z,1020.49
2018-09-10T09:10:37.654Z,1020.47
2018-09-10T09:11:47.226Z,1020.47
2018-09-10T09:12:57.080Z,1020.45
2018-09-10T09:14:06.659Z,1020.41
2018-09-10T09:15:16.787Z,1020.37
2018-09-10T09:16:26.633Z,1020.37
2018-09-10T09:17:36.869Z,1020.35
2018-09-10T09:18:46.609Z,1020.32
2018-09-10T09:19:56.203Z,1020.23
2018-09-10T09:21:05.511Z,1020.23
2018-09-10T09:22:15.355Z,1020.24
2018-09-10T09:23:24.951Z,1020.27
2018-09-10T09:24:35.040Z,1020.29
2018-09-10T09:25:44.342Z,1020.27
2018-09-10T09:26:54.460Z,1020.26
2018-09-10T09:28:04.304Z,1020.33
2018-09-10T09:29:14.180Z,1020.35
2018-09-10T09:30:24.211Z,1020.29
2018-09-10T09:31:33.333Z,1020.37
2018-09-10T09:32:42.944Z,1020.39
2018-09-10T09:33:52.250Z,1020.39
2018-09-10T09:35:01.556Z,1020.46
2018-09-10T09:36:11.461Z,1020.48
2018-09-10T09:37:21.313Z,1020.51
2018-09-10T09:38:31.165Z,1020.54
2018-09-10T09:39:41.016Z,1020.58
2018-09-10T09:40:50.908Z,1020.55
2018-09-10T09:42:00.488Z,1020.53
2018-09-10T09:43:10.194Z,1020.53
2018-09-10T09:44:20.191Z,1020.58
2018-09-10T09:45:30.294Z,1020.63
2018-09-10T09:46:40.152Z,1020.63
2018-09-10T09:47:50.270Z,1020.63
2018-09-10T09:48:59.848Z,1020.63
2018-09-10T09:50:09.689Z,1020.67
2018-09-10T09:51:19.367Z,1020.61
2018-09-10T09:52:28.731Z,1020.61
2018-09-10T09:53:38.337Z,1020.65
2018-09-10T09:54:48.452Z,1020.61
2018-09-10T09:55:58.303Z,1020.61
2018-09-10T09:57:07.950Z,1020.6
2018-09-10T09:58:17.524Z,1020.56
2018-09-10T09:59:27.365Z,1020.53
2018-09-10T10:00:37.270Z,1020.57
2018-09-10T10:01:46.578Z,1020.54
2018-09-10T10:02:56.673Z,1020.46
2018-09-10T10:04:06.308Z,1020.49
2018-09-10T10:05:16.575Z,1020.47
2018-09-10T10:06:26.701Z,1020.44
2018-09-10T10:07:36.553Z,1020.48
2018-09-10T10:08:46.131Z,1020.59
2018-09-10T10:09:56.288Z,1020.5
2018-09-10T10:11:06.537Z,1020.46
2018-09-10T10:12:16.890Z,1020.4
2018-09-10T10:13:28.110Z,1020.39
2018-09-10T10:14:37.988Z,1020.37
2018-09-10T10:15:47.293Z,1020.42
2018-09-10T10:16:56.874Z,1020.41
2018-09-10T10:18:06.501Z,1020.39
2018-09-10T10:19:15.539Z,1020.45
2018-09-10T10:20:25.122Z,1020.52
2018-09-10T10:21:34.975Z,1020.55
2018-09-10T10:22:44.286Z,1020.55
2018-09-10T10:23:54.137Z,1020.59
2018-09-10T10:25:04.265Z,1020.55
2018-09-10T10:26:14.116Z,1020.48
2018-09-10T10:27:23.417Z,1020.51
2018-09-10T10:28:32.720Z,1020.51
2018-09-10T10:29:42.579Z,1020.46
2018-09-10T10:30:52.428Z,1020.43
2018-09-10T10:32:01.734Z,1020.43
2018-09-10T10:33:11.307Z,1020.42
2018-09-10T10:34:20.891Z,1020.37
2018-09-10T10:35:31.056Z,1020.33
2018-09-10T10:36:40.638Z,1020.34
2018-09-10T10:37:50.217Z,1020.36
2018-09-10T10:38:59.789Z,1020.37
2018-09-10T10:40:09.695Z,1020.51
2018-09-10T10:41:19.576Z,1020.48
2018-09-10T10:42:29.132Z,1020.51
2018-09-10T10:43:38.983Z,1020.55
2018-09-10T10:44:49.098Z,1020.44
2018-09-10T10:45:58.161Z,1020.39
2018-09-10T10:47:08.016Z,1020.36
2018-09-10T10:48:17.623Z,1020.34
2018-09-10T10:49:27.219Z,1020.37
2018-09-10T10:50:37.140Z,1020.41
2018-09-10T10:51:46.988Z,1020.34
2018-09-10T10:52:56.294Z,1020.41
2018-09-10T10:54:06.414Z,1020.36
2018-09-10T10:55:16.259Z,1020.36
2018-09-10T10:56:26.105Z,1020.37
2018-09-10T10:57:36.243Z,1020.39
2018-09-10T10:58:46.364Z,1020.38
2018-09-10T10:59:56.209Z,1020.4
2018-09-10T11:01:05.796Z,1020.35
2018-09-10T11:02:15.915Z,1020.34
2018-09-10T11:03:25.226Z,1020.35
2018-09-10T11:04:35.124Z,1020.35
2018-09-10T11:05:44.973Z,1020.38
2018-09-10T11:06:54.826Z,1020.6
2018-09-10T11:08:04.399Z,1020.48
2018-09-10T11:09:14.249Z,1020.49
2018-09-10T11:10:24.155Z,1020.48
2018-09-10T11:11:33.740Z,1020.44
2018-09-10T11:12:43.625Z,1020.44
2018-09-10T11:13:53.752Z,1020.44
2018-09-10T11:15:03.602Z,1020.44
2018-09-10T11:16:12.369Z,1020.42
2018-09-10T11:17:22.218Z,1020.44
2018-09-10T11:18:32.338Z,1020.49
2018-09-10T11:19:42.184Z,1020.48
2018-09-10T11:20:52.332Z,1020.45
2018-09-10T11:22:01.640Z,1020.47
2018-09-10T11:23:11.809Z,1020.53
2018-09-10T11:24:21.936Z,1020.52
2018-09-10T11:25:32.058Z,1020.55
2018-09-10T11:26:41.638Z,1020.56
2018-09-10T11:27:51.222Z,1020.61
2018-09-10T11:29:00.263Z,1020.61
2018-09-10T11:30:09.569Z,1020.62
2018-09-10T11:31:19.142Z,1020.56
2018-09-10T11:32:28.454Z,1020.61
2018-09-10T11:33:38.035Z,1020.6
2018-09-10T11:34:48.195Z,1020.61
2018-09-10T11:35:58.095Z,1020.52
2018-09-10T11:37:08.211Z,1020.57
2018-09-10T11:38:18.256Z,1020.61
2018-09-10T11:39:27.564Z,1020.58
2018-09-10T11:40:37.147Z,1020.62
2018-09-10T11:41:47.272Z,1020.54
2018-09-10T11:42:57.124Z,1020.77
2018-09-10T11:44:06.436Z,1020.62
2018-09-10T11:45:16.549Z,1020.61
2018-09-10T11:46:26.138Z,1020.58
2018-09-10T11:47:36.310Z,1020.59
2018-09-10T11:48:45.347Z,1020.66
2018-09-10T11:49:54.920Z,1020.65
2018-09-10T11:51:04.232Z,1020.65
2018-09-10T11:52:13.813Z,1020.65
2018-09-10T11:53:24.094Z,1020.6
2018-09-10T11:54:33.948Z,1020.61
2018-09-10T11:55:43.918Z,1020.62
2018-09-10T11:56:54.428Z,1020.53
2018-09-10T11:58:04.020Z,1020.57
2018-09-10T11:59:13.340Z,1020.52
2018-09-10T12:00:23.199Z,1020.52
2018-09-10T12:01:33.359Z,1020.59
2018-09-10T12:02:43.315Z,1020.58
2018-09-10T12:03:52.970Z,1020.6
2018-09-10T12:05:02.548Z,1020.62
2018-09-10T12:06:12.142Z,1020.64
2018-09-10T12:07:21.446Z,1020.67
2018-09-10T12:08:31.030Z,1020.66
2018-09-10T12:09:41.151Z,1020.65
2018-09-10T12:10:51.010Z,1020.68
2018-09-10T12:12:00.590Z,1020.72
2018-09-10T12:13:10.454Z,1020.74
2018-09-10T12:14:20.571Z,1020.76
2018-09-10T12:15:30.692Z,1020.72
2018-09-10T12:16:40.273Z,1020.78
2018-09-10T12:17:50.054Z,1020.79
2018-09-10T12:18:59.675Z,1020.81
2018-09-10T12:20:08.986Z,1020.82
2018-09-10T12:21:19.115Z,1020.81
2018-09-10T12:22:29.096Z,1020.86
2018-09-10T12:23:39.216Z,1020.89
2018-09-10T12:24:48.794Z,1020.92
2018-09-10T12:25:58.640Z,1021.02
2018-09-10T12:27:07.946Z,1021
2018-09-10T12:28:17.527Z,1021.03
2018-09-10T12:29:27.377Z,1021.05
2018-09-10T12:30:37.010Z,1021
2018-09-10T12:31:46.860Z,1021.06
2018-09-10T12:32:56.442Z,1021.15
2018-09-10T12:34:05.483Z,1021.1
2018-09-10T12:35:14.792Z,1021.19
2018-09-10T12:36:24.912Z,1021.25
2018-09-10T12:37:34.486Z,1021.35
2018-09-10T12:38:44.339Z,1021.41
2018-09-10T12:39:54.193Z,1021.43
2018-09-10T12:41:03.233Z,1021.47
2018-09-10T12:42:12.809Z,1021.47
2018-09-10T12:43:22.931Z,1021.43
2018-09-10T12:44:32.508Z,1021.5
2018-09-10T12:45:42.359Z,1021.46
2018-09-10T12:46:52.212Z,1021.38
2018-09-10T12:48:02.068Z,1021.4
2018-09-10T12:49:11.647Z,1021.44
2018-09-10T12:50:21.226Z,1021.44
2018-09-10T12:51:30.813Z,1021.39
2018-09-10T12:52:40.659Z,1021.41
2018-09-10T12:53:50.267Z,1021.46
2018-09-10T12:54:59.848Z,1021.46
2018-09-10T12:56:09.703Z,1021.4
2018-09-10T12:57:19.550Z,1021.4
2018-09-10T12:58:29.125Z,1021.36
2018-09-10T12:59:38.996Z,1021.42
2018-09-10T13:00:48.574Z,1021.4
2018-09-10T13:01:58.423Z,1021.39
2018-09-10T13:03:08.008Z,1021.33
2018-09-10T13:04:17.683Z,1021.23
2018-09-10T13:05:27.382Z,1021.17
2018-09-10T13:06:37.239Z,1021.11
2018-09-10T13:07:46.815Z,1021.11
2018-09-10T13:08:56.123Z,1021.1
2018-09-10T13:10:05.697Z,1021.05
2018-09-10T13:11:15.818Z,1021.07
2018-09-10T13:12:25.928Z,1021.05
2018-09-10T13:13:35.505Z,1021.01
2018-09-10T13:14:45.631Z,1021.1
2018-09-10T13:15:55.483Z,1021.06
2018-09-10T13:17:05.135Z,1021.1
2018-09-10T13:18:15.267Z,1020.98
2018-09-10T13:19:25.388Z,1021.01
2018-09-10T13:20:34.966Z,1020.97
2018-09-10T13:21:44.539Z,1020.97
2018-09-10T13:22:54.381Z,1020.99
2018-09-10T13:24:04.224Z,1020.99
2018-09-10T13:25:14.082Z,1020.96
2018-09-10T13:26:24.200Z,1020.92
2018-09-10T13:27:34.052Z,1020.99
2018-09-10T13:28:43.639Z,1021
2018-09-10T13:29:53.549Z,1021.01
2018-09-10T13:31:03.443Z,1020.96
2018-09-10T13:32:13.295Z,1020.95
2018-09-10T13:33:23.423Z,1020.92
2018-09-10T13:34:33.546Z,1020.81
2018-09-10T13:35:43.133Z,1020.85
2018-09-10T13:36:52.988Z,1020.81
2018-09-10T13:38:02.838Z,1020.83
2018-09-10T13:39:12.428Z,1020.89
2018-09-10T13:40:22.555Z,1020.92
2018-09-10T13:41:32.690Z,1020.9
2018-09-10T13:42:42.279Z,1020.97
2018-09-10T13:43:51.856Z,1020.97
2018-09-10T13:45:01.483Z,1020.94
2018-09-10T13:46:11.119Z,1021
2018-09-10T13:47:20.968Z,1021.01
2018-09-10T13:48:30.853Z,1021.06
2018-09-10T13:49:40.661Z,1020.99
2018-09-10T13:50:50.241Z,1021.08
2018-09-10T13:51:59.818Z,1021.14
2018-09-10T13:53:09.128Z,1021.11
2018-09-10T13:54:19.317Z,1021.18
2018-09-10T13:55:29.168Z,1021.23
2018-09-10T13:56:39.290Z,1021.23
2018-09-10T13:57:49.164Z,1021.25
2018-09-10T13:58:59.056Z,1021.21
2018-09-10T14:00:09.177Z,1021.19
2018-09-10T14:01:18.552Z,1021.23
2018-09-10T14:02:28.527Z,1021.22
2018-09-10T14:03:38.642Z,1021.26
2018-09-10T14:04:48.216Z,1021.25
2018-09-10T14:05:57.788Z,1021.21
2018-09-10T14:07:06.824Z,1021.25